Wednesday, September 17, 2014
17:41 UTC
  |  Log In   |  Register Free
Airport Search:

Lonesome Pine Airport
(KLNP)

Lonesome Pine Airport Diagram
No Airport Diagram Available

FAA data valid effective July 24, 2014 until September 18, 2014 (unless otherwise noted).

 
 
 
 
 
 
 
 
 
 
 
 
 
 

Current Aviation Weather for Lonesome Pine Airport (KLNP)

The most recent METAR observation for KLNP was updated at: 1714
METAR Summary (Translated METAR)
KLNP
171655Z AUTO 00000KT 10SM OVC026 19/11 A3004 RMK AO2
KVJI
171655Z AUTO 00000KT 10SM SCT028 SCT034 23/15 A3000 RMK AO2 T02260148
(29.9 nm SE from KLNP)
KTRI
171653Z VRB03KT 10SM SCT030 BKN035 21/13 A2998 RMK AO2 SLP133 T02110133
(31.3 nm SE from KLNP)
TAF Summary (Translated TAF)
KTRI
(31.3 nm SE from KLNP)
171120Z 1712/1812 00000KT P6SM SCT015 BKN025 TEMPO 1712/1713 5SM BR BKN015 FM171300 VRB03KT P6SM BKN025 FM171500 VRB04KT P6SM SCT035 FM180000 00000KT P6SM SCT120
  Airport Weather Conditions for KLNP

 Current Weather at LNP
66° F
Mostly Cloudy
East winds at 5.8 mph
LNP NOAA Radar

Pressure: 30.05 in
Humidity: 60%
Wind: East at 5.8 MPH (5 KT)
Dew Point: 51.8°F
Visibility: 10.00 mi


Airport Weather Forecast for KLNP

Translated METAR and TAF for KLNP
Translated METAR for KLNP (1735 UTC 17 September 2014)
found at http://aviationweather.gov/adds/metars/
 
METAR text: KLNP 171715Z AUTO 31004KT 10SM OVC026 19/11 A3004 RMK AO2
Conditions at: KLNP (WISE/LONESOME PI, VA, US) observed 1715 UTC 17 September 2014
Temperature: 19.0°C (66°F)
Dewpoint: 11.0°C (52°F) [RH = 60%]
Pressure (altimeter): 30.04 inches Hg (1017.4 mb)
Winds: from the NW (310 degrees) at 5 MPH (4 knots; 2.1 m/s)
Visibility: 10 or more miles (16+ km)
Ceiling: 2600 feet AGL
Clouds: overcast cloud deck at 2600 feet AGL
Weather: automated observation with no human augmentation;
there may or may not be significant weather present at this time
Translated TAF for KLNP

There is no translated TAF available for this airport

Find All Airport Services Find A Hotel Find A Rental Car Find A Golf Course Find A Restaurant $100 Hamburger



FBO's on the Field
FBO Company Facility Photos Services Transportation Aviation Fuel Prices: Prices include tax
Catering Weather Repair Courtesy Rental Type 100LL JetA JetA+ MOGAS 8087
 
Lonesome Pine Airport

This FBO has not yet been rated
FS:Shell
Last Updated: Aug-20
Login to update fuel prices
SS:
Contact Lonesome Pine AirportMore FBO Information
 
Add another FBO Facility Photos Catering Weather Repair Courtesy Rental Type 100LL JetA JetA+ MOGAS 8087
Services Transportation Aviation Fuel Prices: Prices include tax


model-print
model-print
model-print
model-print